createdAt,value
2023-05-09T00:01:40.659Z,1.05
2023-05-09T00:04:11.133Z,1.09
2023-05-09T00:06:41.228Z,1.04
2023-05-09T00:09:11.538Z,1.04
2023-05-09T00:11:41.858Z,1.02
2023-05-09T00:14:12.300Z,1.03
2023-05-09T00:16:42.643Z,1
2023-05-09T00:19:12.993Z,1.02
2023-05-09T00:21:43.374Z,1.04
2023-05-09T00:24:13.412Z,1.04
2023-05-09T00:26:43.812Z,1.05
2023-05-09T00:29:14.208Z,1.05
2023-05-09T00:31:44.652Z,1.06
2023-05-09T00:34:14.685Z,1.07
2023-05-09T00:36:45.087Z,1.1
2023-05-09T00:39:15.230Z,1.11
2023-05-09T00:41:45.599Z,1.09
2023-05-09T00:44:16.017Z,1.08
2023-05-09T00:46:46.400Z,1.06
2023-05-09T00:49:16.777Z,1.09
2023-05-09T00:51:47.197Z,1.07
2023-05-09T00:54:17.289Z,1.04
2023-05-09T00:56:47.929Z,1.05
2023-05-09T00:59:18.345Z,1.04
2023-05-09T01:01:49.253Z,1.01
2023-05-09T01:04:20.020Z,1.01
2023-05-09T01:06:50.086Z,0.99
2023-05-09T01:09:20.142Z,0.98
2023-05-09T01:11:50.266Z,1
2023-05-09T01:14:20.668Z,1.03
2023-05-09T01:16:51.401Z,1.04
2023-05-09T01:19:21.670Z,1.06
2023-05-09T01:21:52.409Z,1.06
2023-05-09T01:24:22.523Z,1.05
2023-05-09T01:26:52.612Z,1.03
2023-05-09T01:29:22.754Z,1.02
2023-05-09T01:31:52.826Z,1.02
2023-05-09T01:34:23.604Z,1.02
2023-05-09T01:36:53.940Z,1.04
2023-05-09T01:39:24.568Z,1.02
2023-05-09T01:41:55.322Z,1.04
2023-05-09T01:44:26.036Z,1.07
2023-05-09T01:46:56.369Z,1.06
2023-05-09T01:49:27.099Z,1.09
2023-05-09T01:51:57.094Z,1.09
2023-05-09T01:54:27.196Z,1.1
2023-05-09T01:56:57.388Z,1.13
2023-05-09T01:59:28.086Z,1.13
2023-05-09T02:01:58.143Z,1.17
2023-05-09T02:04:28.332Z,1.21
2023-05-09T02:06:58.668Z,1.15
2023-05-09T02:09:28.678Z,1.15
2023-05-09T02:11:59.174Z,1.17
2023-05-09T02:14:30.040Z,1.19
2023-05-09T02:17:00.177Z,1.16
2023-05-09T02:19:30.532Z,1.21
2023-05-09T02:22:00.904Z,1.16
2023-05-09T02:24:31.610Z,1.17
2023-05-09T02:27:01.837Z,1.2
2023-05-09T02:29:32.415Z,1.2
2023-05-09T02:32:03.220Z,1.24
2023-05-09T02:34:33.617Z,1.2
2023-05-09T02:37:04.332Z,1.2
2023-05-09T02:39:35.042Z,1.2
2023-05-09T02:42:05.187Z,1.22
2023-05-09T02:44:35.897Z,1.22
2023-05-09T02:47:05.911Z,1.19
2023-05-09T02:49:36.400Z,1.22
2023-05-09T02:52:06.868Z,1.22
2023-05-09T02:54:37.307Z,1.23
2023-05-09T02:57:08.006Z,1.22
2023-05-09T02:59:38.301Z,1.23
2023-05-09T03:02:08.333Z,1.25
2023-05-09T03:04:38.511Z,1.26
2023-05-09T03:07:09.112Z,1.25
2023-05-09T03:09:41.195Z,1.26
2023-05-09T03:12:10.568Z,1.27
2023-05-09T03:14:41.268Z,1.26
2023-05-09T03:17:11.323Z,1.3
2023-05-09T03:19:41.785Z,1.29
2023-05-09T03:22:11.905Z,1.29
2023-05-09T03:24:42.653Z,1.29
2023-05-09T03:27:13.048Z,1.3
2023-05-09T03:29:43.181Z,1.29
2023-05-09T03:32:15.322Z,1.3
2023-05-09T03:34:44.630Z,1.33
2023-05-09T03:37:14.762Z,1.35
2023-05-09T03:39:45.162Z,1.33
2023-05-09T03:42:15.385Z,1.37
2023-05-09T03:44:45.842Z,1.34
2023-05-09T03:47:15.902Z,1.34
2023-05-09T03:49:46.214Z,1.37
2023-05-09T03:52:16.923Z,1.35
2023-05-09T03:54:47.362Z,1.36
2023-05-09T03:57:17.583Z,1.37
2023-05-09T03:59:48.189Z,1.38
2023-05-09T04:02:18.464Z,1.36
2023-05-09T04:04:49.126Z,1.42
2023-05-09T04:07:19.873Z,1.34
2023-05-09T04:09:50.531Z,1.36
2023-05-09T04:12:20.583Z,1.36
2023-05-09T04:14:50.690Z,1.33
2023-05-09T04:17:21.455Z,1.42
2023-05-09T04:19:51.709Z,1.36
2023-05-09T04:22:21.908Z,1.4
2023-05-09T04:24:52.300Z,1.38
2023-05-09T04:27:22.421Z,1.37
2023-05-09T04:29:52.598Z,1.38
2023-05-09T04:32:23.468Z,1.39
2023-05-09T04:34:53.647Z,1.41
2023-05-09T04:37:24.551Z,1.38
2023-05-09T04:39:55.196Z,1.36
2023-05-09T04:42:25.635Z,1.35
2023-05-09T04:44:55.818Z,1.34
2023-05-09T04:47:26.226Z,1.35
2023-05-09T04:49:56.643Z,1.4
2023-05-09T04:52:27.321Z,1.33
2023-05-09T04:54:58.097Z,1.35
2023-05-09T04:57:28.738Z,1.36
2023-05-09T04:59:59.460Z,1.35
2023-05-09T05:02:30.099Z,1.35
2023-05-09T05:05:10.987Z,1.4
2023-05-09T05:07:31.327Z,1.39
2023-05-09T05:10:01.702Z,1.34
2023-05-09T05:12:31.883Z,1.36
2023-05-09T05:15:01.971Z,1.37
2023-05-09T05:17:32.271Z,1.36
2023-05-09T05:20:02.869Z,1.32
2023-05-09T05:22:33.706Z,1.29
2023-05-09T05:25:04.516Z,1.31
2023-05-09T05:27:34.836Z,1.31
2023-05-09T05:30:05.560Z,1.31
2023-05-09T05:32:35.927Z,1.29
2023-05-09T05:35:06.702Z,1.31
2023-05-09T05:37:37.427Z,1.29
2023-05-09T05:40:08.269Z,1.33
2023-05-09T05:42:38.370Z,1.3
2023-05-09T05:45:08.733Z,1.33
2023-05-09T05:47:39.668Z,1.3
2023-05-09T05:50:09.673Z,1.28
2023-05-09T05:52:39.847Z,1.23
2023-05-09T05:55:09.995Z,1.24
2023-05-09T05:57:40.505Z,1.2
2023-05-09T06:00:11.161Z,1.23
2023-05-09T06:02:41.889Z,1.24
2023-05-09T06:05:11.841Z,1.2
2023-05-09T06:07:41.982Z,1.21
2023-05-09T06:10:12.449Z,1.19
2023-05-09T06:12:42.587Z,1.22
2023-05-09T06:15:13.360Z,1.21
2023-05-09T06:17:43.583Z,1.18
2023-05-09T06:20:14.227Z,1.22
2023-05-09T06:22:44.989Z,1.28
2023-05-09T06:25:15.978Z,1.24
2023-05-09T06:27:46.606Z,1.23
2023-05-09T06:30:28.032Z,1.22
2023-05-09T06:32:47.971Z,1.19
2023-05-09T06:35:18.068Z,1.26
2023-05-09T06:37:49.113Z,1.23
2023-05-09T06:40:18.655Z,1.22
2023-05-09T06:42:49.008Z,1.26
2023-05-09T06:45:19.647Z,1.22
2023-05-09T06:47:49.876Z,1.26
2023-05-09T06:50:19.875Z,1.26
2023-05-09T06:52:50.303Z,1.24
2023-05-09T06:55:21.256Z,1.25
2023-05-09T06:57:51.453Z,1.23
2023-05-09T07:00:22.055Z,1.21
2023-05-09T07:02:52.760Z,1.22
2023-05-09T07:05:23.591Z,1.25
2023-05-09T07:07:54.249Z,1.23
2023-05-09T07:10:24.686Z,1.27
2023-05-09T07:12:54.876Z,1.27
2023-05-09T07:15:39.889Z,1.23
2023-05-09T07:17:55.247Z,1.27
2023-05-09T07:20:25.284Z,1.29
2023-05-09T07:22:55.538Z,1.32
2023-05-09T07:25:26.057Z,1.29
2023-05-09T07:27:56.495Z,1.34
2023-05-09T07:30:27.202Z,1.34
2023-05-09T07:32:57.446Z,1.3
2023-05-09T07:35:27.667Z,1.34
2023-05-09T07:37:58.307Z,1.33
2023-05-09T07:40:28.950Z,1.31
2023-05-09T07:42:59.469Z,1.3
2023-05-09T07:45:30.361Z,1.32
2023-05-09T07:48:01.004Z,1.33
2023-05-09T07:50:31.663Z,1.3
2023-05-09T07:53:01.980Z,1.34
2023-05-09T07:55:32.492Z,1.38
2023-05-09T07:58:02.756Z,1.32
2023-05-09T08:00:32.792Z,1.35
2023-05-09T08:03:03.053Z,1.37
2023-05-09T08:05:33.415Z,1.44
2023-05-09T08:08:03.525Z,1.41
2023-05-09T08:10:33.975Z,1.4
2023-05-09T08:13:04.118Z,1.44
2023-05-09T08:15:34.463Z,1.42
2023-05-09T08:18:04.887Z,1.43
2023-05-09T08:20:34.958Z,1.45
2023-05-09T08:23:05.369Z,1.47
2023-05-09T08:25:35.549Z,1.43
2023-05-09T08:28:06.152Z,1.39
2023-05-09T08:30:36.881Z,1.42
2023-05-09T08:33:07.323Z,1.4
2023-05-09T08:35:37.427Z,1.34
2023-05-09T08:38:08.127Z,1.42
2023-05-09T08:40:38.645Z,1.42
2023-05-09T08:43:09.264Z,1.41
2023-05-09T08:45:39.857Z,1.39
2023-05-09T08:48:10.630Z,1.36
2023-05-09T08:50:41.424Z,1.34
2023-05-09T08:53:12.325Z,1.38
2023-05-09T08:55:43.138Z,1.37
2023-05-09T08:58:13.702Z,1.35
2023-05-09T09:00:44.409Z,1.41
2023-05-09T09:03:15.007Z,1.35
2023-05-09T09:05:45.268Z,1.34
2023-05-09T09:08:16.086Z,1.39
2023-05-09T09:10:46.150Z,1.36
2023-05-09T09:13:17.074Z,1.35
2023-05-09T09:15:47.579Z,1.34
2023-05-09T09:18:18.380Z,1.35
2023-05-09T09:20:48.569Z,1.37
2023-05-09T09:23:18.912Z,1.34
2023-05-09T09:25:49.532Z,1.38
2023-05-09T09:28:19.747Z,1.34
2023-05-09T09:30:50.438Z,1.33
2023-05-09T09:33:20.502Z,1.31
2023-05-09T09:35:51.205Z,1.32
2023-05-09T09:38:21.821Z,1.34
2023-05-09T09:40:52.095Z,1.26
2023-05-09T09:43:22.341Z,1.25
2023-05-09T09:45:52.452Z,1.28
2023-05-09T09:48:23.186Z,1.31
2023-05-09T09:50:53.855Z,1.35
2023-05-09T09:53:24.261Z,1.29
2023-05-09T09:55:54.319Z,1.25
2023-05-09T09:58:24.909Z,1.32
2023-05-09T10:00:55.553Z,1.31
2023-05-09T10:03:25.674Z,1.31
2023-05-09T10:05:55.812Z,1.32
2023-05-09T10:08:26.117Z,1.38
2023-05-09T10:10:56.662Z,1.34
2023-05-09T10:13:27.039Z,1.24
2023-05-09T10:15:57.393Z,1.26
2023-05-09T10:18:28.133Z,1.22
2023-05-09T10:20:58.732Z,1.15
2023-05-09T10:23:29.301Z,1.26
2023-05-09T10:26:00.086Z,1.23
2023-05-09T10:28:30.210Z,1.19
2023-05-09T10:31:00.727Z,1.19
2023-05-09T10:33:31.121Z,1.21
2023-05-09T10:36:01.776Z,1.13
2023-05-09T10:38:31.950Z,1.12
2023-05-09T10:41:02.637Z,1.1
2023-05-09T10:43:34.195Z,1.1
2023-05-09T10:46:03.425Z,1.14
2023-05-09T10:48:33.800Z,1.16
2023-05-09T10:51:04.544Z,1.15
2023-05-09T10:53:34.708Z,1.08
2023-05-09T10:56:04.920Z,1.12
2023-05-09T10:58:35.193Z,1.1
2023-05-09T11:01:05.490Z,1.12
2023-05-09T11:03:36.201Z,1.17
2023-05-09T11:06:06.381Z,1.13
2023-05-09T11:08:36.675Z,1.18
2023-05-09T11:11:06.975Z,1.09
2023-05-09T11:13:37.708Z,1.05
2023-05-09T11:16:08.379Z,1.07
2023-05-09T11:18:39.164Z,1.06
2023-05-09T11:21:09.076Z,0.99
2023-05-09T11:23:39.953Z,1.02
2023-05-09T11:26:10.028Z,0.99
2023-05-09T11:28:40.677Z,1.02
2023-05-09T11:31:11.535Z,1.08
2023-05-09T11:33:41.869Z,1
2023-05-09T11:36:12.567Z,0.99
2023-05-09T11:38:43.189Z,0.92
2023-05-09T11:41:13.373Z,0.97
2023-05-09T11:43:43.736Z,0.99
2023-05-09T11:46:14.022Z,0.93
2023-05-09T11:48:44.087Z,1
2023-05-09T11:51:14.080Z,0.97
2023-05-09T11:53:44.670Z,1
2023-05-09T11:56:14.908Z,0.99
2023-05-09T11:58:44.956Z,0.84
2023-05-09T12:01:15.099Z,0.93
2023-05-09T12:03:45.881Z,0.86
2023-05-09T12:06:16.560Z,0.85
2023-05-09T12:08:47.050Z,0.85
2023-05-09T12:11:17.068Z,0.86
2023-05-09T12:13:47.736Z,0.86
2023-05-09T12:16:17.912Z,0.83
2023-05-09T12:18:48.710Z,0.83
2023-05-09T12:21:19.062Z,0.78
2023-05-09T12:23:51.827Z,0.81
2023-05-09T12:26:20.529Z,0.89
2023-05-09T12:28:51.208Z,0.91
2023-05-09T12:31:21.422Z,0.89
2023-05-09T12:33:51.544Z,0.89
2023-05-09T12:36:22.286Z,0.87
2023-05-09T12:38:52.896Z,0.92
2023-05-09T12:41:37.081Z,0.91
2023-05-09T12:43:53.183Z,0.94
2023-05-09T12:46:24.004Z,0.87
2023-05-09T12:48:54.136Z,0.91
2023-05-09T12:51:24.298Z,0.84
2023-05-09T12:53:54.591Z,0.9
2023-05-09T12:56:24.793Z,0.88
2023-05-09T12:58:55.379Z,0.95
2023-05-09T13:01:25.757Z,0.89
2023-05-09T13:03:56.581Z,0.87
2023-05-09T13:06:27.213Z,0.9
2023-05-09T13:08:58.060Z,0.94
2023-05-09T13:11:28.605Z,1.02
2023-05-09T13:13:58.745Z,0.97
2023-05-09T13:16:29.481Z,0.88
2023-05-09T13:18:59.764Z,1
2023-05-09T13:21:30.254Z,0.96
2023-05-09T13:24:00.454Z,0.99
2023-05-09T13:26:31.246Z,1.08
2023-05-09T13:29:01.557Z,1.03
2023-05-09T13:31:31.936Z,1.14
2023-05-09T13:34:02.172Z,1
2023-05-09T13:36:32.711Z,1.13
2023-05-09T13:39:03.520Z,1.11
2023-05-09T13:41:34.905Z,0.96
2023-05-09T13:44:04.348Z,0.88
2023-05-09T13:46:34.306Z,0.91
2023-05-09T13:49:04.396Z,0.9
2023-05-09T13:51:35.235Z,0.92
2023-05-09T13:54:05.454Z,1.02
2023-05-09T13:56:36.122Z,1.01
2023-05-09T13:59:06.752Z,1.03
2023-05-09T14:01:37.527Z,0.94
2023-05-09T14:04:07.713Z,0.99
2023-05-09T14:06:38.489Z,1.08
2023-05-09T14:09:08.646Z,1.04
2023-05-09T14:11:39.512Z,1.01
2023-05-09T14:14:10.164Z,0.98
2023-05-09T14:16:40.505Z,1.03
2023-05-09T14:19:10.652Z,1.04
2023-05-09T14:21:41.161Z,0.99
2023-05-09T14:24:14.264Z,1.05
2023-05-09T14:26:42.053Z,1.05
2023-05-09T14:29:12.275Z,1.12
2023-05-09T14:31:42.669Z,1.16
2023-05-09T14:34:13.310Z,1.17
2023-05-09T14:36:43.511Z,1.13
2023-05-09T14:39:13.636Z,1.2
2023-05-09T14:41:43.533Z,1.17
2023-05-09T14:44:14.185Z,1.01
2023-05-09T14:46:44.813Z,1.16
2023-05-09T14:49:15.452Z,1.12
2023-05-09T14:51:45.552Z,1.2
2023-05-09T14:54:15.697Z,1.23
2023-05-09T14:56:46.461Z,1.18
2023-05-09T14:59:16.722Z,1.2
2023-05-09T15:01:47.143Z,1.05
2023-05-09T15:04:17.592Z,1.03
2023-05-09T15:06:48.000Z,1.1
2023-05-09T15:09:18.762Z,1.05
2023-05-09T15:11:49.362Z,1
2023-05-09T15:14:18.916Z,1.04
2023-05-09T15:16:49.748Z,1.12
2023-05-09T15:19:20.484Z,1.11
2023-05-09T15:21:51.130Z,1.13
2023-05-09T15:24:21.756Z,1.08
2023-05-09T15:26:51.915Z,1.06
2023-05-09T15:29:22.705Z,1.09
2023-05-09T15:31:52.946Z,1.21
2023-05-09T15:34:23.423Z,1.31
2023-05-09T15:36:53.582Z,1.22
2023-05-09T15:39:23.888Z,0.92
2023-05-09T15:41:54.223Z,0.8
2023-05-09T15:44:24.170Z,0.73
2023-05-09T15:46:54.456Z,0.8
2023-05-09T15:49:24.805Z,0.75
2023-05-09T15:51:54.778Z,0.8
2023-05-09T15:54:25.151Z,0.79
2023-05-09T15:56:55.402Z,0.85
2023-05-09T15:59:25.739Z,1
2023-05-09T16:01:56.089Z,1.55
2023-05-09T16:04:26.396Z,1.6
2023-05-09T16:06:56.964Z,1.71
2023-05-09T16:09:27.548Z,1.55
2023-05-09T16:11:57.602Z,1.68
2023-05-09T16:14:27.949Z,1.76
2023-05-09T16:16:58.188Z,1.5
2023-05-09T16:19:28.506Z,1.45
2023-05-09T16:21:59.405Z,1.51
2023-05-09T16:24:30.321Z,1.57
2023-05-09T16:27:01.222Z,1.63
2023-05-09T16:29:31.807Z,1.51
2023-05-09T16:32:02.522Z,1.58
2023-05-09T16:34:32.785Z,1.67
2023-05-09T16:37:03.408Z,1.55
2023-05-09T16:39:34.176Z,1.62
2023-05-09T16:42:04.379Z,1.71
2023-05-09T16:44:34.505Z,1.6
2023-05-09T16:47:04.985Z,1.7
2023-05-09T16:49:35.420Z,1.71
2023-05-09T16:52:05.934Z,1.66
2023-05-09T16:54:36.574Z,1.72
2023-05-09T16:57:06.728Z,1.72
2023-05-09T16:59:37.315Z,1.63
2023-05-09T17:02:07.717Z,1.63
2023-05-09T17:04:38.429Z,1.76
2023-05-09T17:07:09.191Z,1.73
2023-05-09T17:09:40.003Z,1.64
2023-05-09T17:12:10.670Z,1.57
2023-05-09T17:14:41.487Z,1.56
2023-05-09T17:17:11.502Z,1.63
2023-05-09T17:19:42.141Z,1.65
2023-05-09T17:22:12.428Z,1.62
2023-05-09T17:24:42.464Z,1.68
2023-05-09T17:27:12.742Z,1.69
2023-05-09T17:29:42.844Z,1.64
2023-05-09T17:32:12.926Z,1.59
2023-05-09T17:34:43.089Z,1.51
2023-05-09T17:37:13.517Z,1.53
2023-05-09T17:39:43.941Z,1.6
2023-05-09T17:42:13.898Z,1.64
2023-05-09T17:44:44.677Z,1.62
2023-05-09T17:47:14.731Z,1.74
2023-05-09T17:49:45.288Z,1.72
2023-05-09T17:52:15.341Z,1.76
2023-05-09T17:54:46.053Z,1.71
2023-05-09T17:57:16.997Z,1.65
2023-05-09T17:59:48.027Z,1.63
2023-05-09T18:02:18.172Z,1.55
2023-05-09T18:04:48.789Z,1.68
2023-05-09T18:07:19.468Z,1.64
2023-05-09T18:09:49.957Z,1.7
2023-05-09T18:12:20.460Z,1.73
2023-05-09T18:14:51.243Z,1.75
2023-05-09T18:17:21.805Z,1.69
2023-05-09T18:19:52.249Z,1.65
2023-05-09T18:22:22.490Z,1.65
2023-05-09T18:24:53.141Z,1.69
2023-05-09T18:27:23.227Z,1.72
2023-05-09T18:29:53.905Z,1.66
2023-05-09T18:32:24.858Z,1.64
2023-05-09T18:34:55.456Z,1.71
2023-05-09T18:37:25.378Z,1.63
2023-05-09T18:39:55.692Z,1.68
2023-05-09T18:42:26.105Z,1.63
2023-05-09T18:44:56.621Z,1.62
2023-05-09T18:47:27.188Z,1.54
2023-05-09T18:49:57.412Z,1.48
2023-05-09T18:52:27.797Z,1.51
2023-05-09T18:54:58.692Z,1.57
2023-05-09T18:57:29.591Z,1.57
2023-05-09T19:00:00.486Z,1.63
2023-05-09T19:02:31.413Z,1.61
2023-05-09T19:05:01.670Z,1.67
2023-05-09T19:07:31.999Z,1.62
2023-05-09T19:10:02.337Z,1.67
2023-05-09T19:12:32.676Z,1.67
2023-05-09T19:15:03.287Z,1.58
2023-05-09T19:17:33.694Z,1.53
2023-05-09T19:20:03.928Z,1.53
2023-05-09T19:22:34.729Z,1.64
2023-05-09T19:25:04.782Z,1.59
2023-05-09T19:27:34.790Z,1.6
2023-05-09T19:30:05.150Z,1.6
2023-05-09T19:32:35.181Z,1.6
2023-05-09T19:35:05.233Z,1.61
2023-05-09T19:37:35.384Z,1.57
2023-05-09T19:40:05.726Z,1.52
2023-05-09T19:42:36.666Z,1.55
2023-05-09T19:45:06.975Z,1.53
2023-05-09T19:47:37.432Z,1.54
2023-05-09T19:50:07.760Z,1.5
2023-05-09T19:52:37.965Z,1.56
2023-05-09T19:55:08.329Z,1.55
2023-05-09T19:57:38.702Z,1.52
2023-05-09T20:00:08.983Z,1.51
2023-05-09T20:02:39.404Z,1.46
2023-05-09T20:05:09.704Z,1.44
2023-05-09T20:07:40.016Z,1.44
2023-05-09T20:10:10.348Z,1.42
2023-05-09T20:12:40.822Z,1.38
2023-05-09T20:15:11.013Z,1.4
2023-05-09T20:17:41.393Z,1.39
2023-05-09T20:20:11.665Z,1.42
2023-05-09T20:22:41.995Z,1.36
2023-05-09T20:25:12.342Z,1.43
2023-05-09T20:27:42.657Z,1.38
2023-05-09T20:30:13.269Z,1.42
2023-05-09T20:32:43.388Z,1.41
2023-05-09T20:35:13.746Z,1.37
2023-05-09T20:37:44.013Z,1.4
2023-05-09T20:40:14.641Z,1.41
2023-05-09T20:42:44.683Z,1.42
2023-05-09T20:45:15.042Z,1.46
2023-05-09T20:47:45.435Z,1.43
2023-05-09T20:50:15.945Z,1.42
2023-05-09T20:52:46.167Z,1.45
2023-05-09T20:55:16.426Z,1.45
2023-05-09T20:57:46.812Z,1.44
2023-05-09T21:00:17.473Z,1.48
2023-05-09T21:02:47.563Z,1.46
2023-05-09T21:05:17.782Z,1.48
2023-05-09T21:07:48.120Z,1.39
2023-05-09T21:10:18.645Z,1.42
2023-05-09T21:12:48.805Z,1.46
2023-05-09T21:15:19.147Z,1.47
2023-05-09T21:17:49.595Z,1.48
2023-05-09T21:20:19.839Z,1.5
2023-05-09T21:22:50.264Z,1.5
2023-05-09T21:25:20.604Z,1.51
2023-05-09T21:27:50.881Z,1.54
2023-05-09T21:30:21.254Z,1.51
2023-05-09T21:32:51.639Z,1.48
2023-05-09T21:35:21.988Z,1.48
2023-05-09T21:37:52.316Z,1.49
2023-05-09T21:40:22.681Z,1.49
2023-05-09T21:42:53.022Z,1.55
2023-05-09T21:45:23.404Z,1.46
2023-05-09T21:47:53.815Z,1.43
2023-05-09T21:50:24.105Z,1.51
2023-05-09T21:52:54.083Z,1.48
2023-05-09T21:55:24.459Z,1.46
2023-05-09T21:57:54.792Z,1.5
2023-05-09T22:00:25.265Z,1.5
2023-05-09T22:02:55.545Z,1.51
2023-05-09T22:05:25.829Z,1.5
2023-05-09T22:07:56.160Z,1.51
2023-05-09T22:10:26.521Z,1.49
2023-05-09T22:12:56.587Z,1.52
2023-05-09T22:15:26.945Z,1.51
2023-05-09T22:17:57.324Z,1.56
2023-05-09T22:20:27.653Z,1.56
2023-05-09T22:22:58.006Z,1.58
2023-05-09T22:25:28.384Z,1.55
2023-05-09T22:27:58.722Z,1.58
2023-05-09T22:30:29.092Z,1.58
2023-05-09T22:32:59.481Z,1.55
2023-05-09T22:35:29.816Z,1.51
2023-05-09T22:38:00.154Z,1.59
2023-05-09T22:40:30.516Z,1.61
2023-05-09T22:43:00.960Z,1.56
2023-05-09T22:45:31.295Z,1.58
2023-05-09T22:48:01.655Z,1.43
2023-05-09T22:50:31.982Z,1.48
2023-05-09T22:53:02.358Z,1.48
2023-05-09T22:55:32.719Z,1.6
2023-05-09T22:58:03.106Z,1.6
2023-05-09T23:00:33.444Z,1.51
2023-05-09T23:03:04.015Z,1.56
2023-05-09T23:05:34.202Z,1.55
2023-05-09T23:08:04.526Z,1.58
2023-05-09T23:10:34.912Z,1.6
2023-05-09T23:13:05.306Z,1.6
2023-05-09T23:15:35.676Z,1.62
2023-05-09T23:18:06.080Z,1.63
2023-05-09T23:20:36.356Z,1.61
2023-05-09T23:23:06.712Z,1.55
2023-05-09T23:25:37.084Z,1.47
2023-05-09T23:28:07.436Z,1.5
2023-05-09T23:30:37.835Z,1.55
2023-05-09T23:33:08.181Z,1.48
2023-05-09T23:35:38.582Z,1.51
2023-05-09T23:38:09.387Z,1.55
2023-05-09T23:40:39.858Z,1.53
2023-05-09T23:43:10.200Z,1.47
2023-05-09T23:45:40.623Z,1.47
2023-05-09T23:48:10.938Z,1.53
2023-05-09T23:50:41.372Z,1.46
2023-05-09T23:53:11.665Z,1.5
2023-05-09T23:55:42.051Z,1.52
2023-05-09T23:58:12.442Z,1.49
